createdAt,value
2023-02-12T00:04:39.330Z,6.70
2023-02-12T00:09:41.724Z,6.70
2023-02-12T00:14:43.949Z,6.70
2023-02-12T00:19:48.243Z,6.70
2023-02-12T00:24:50.566Z,6.70
2023-02-12T00:29:52.876Z,6.80
2023-02-12T00:34:55.187Z,6.70
2023-02-12T00:39:57.432Z,6.70
2023-02-12T00:44:59.668Z,6.70
2023-02-12T00:50:01.953Z,6.70
2023-02-12T00:55:05.112Z,6.70
2023-02-12T01:00:08.076Z,6.60
2023-02-12T01:05:10.975Z,6.70
2023-02-12T01:10:13.431Z,6.70
2023-02-12T01:15:16.497Z,6.60
2023-02-12T01:20:20.714Z,6.60
2023-02-12T01:25:22.960Z,6.60
2023-02-12T01:30:25.259Z,6.50
2023-02-12T01:35:27.636Z,6.50
2023-02-12T01:40:29.971Z,6.50
2023-02-12T01:45:45.898Z,6.40
2023-02-12T01:50:50.240Z,6.50
2023-02-12T01:55:58.364Z,6.50
2023-02-12T02:01:03.807Z,6.50
2023-02-12T02:06:30.857Z,6.50
2023-02-12T02:12:07.595Z,6.40
2023-02-12T02:17:25.005Z,6.40
2023-02-12T02:22:45.678Z,6.40
2023-02-12T02:28:02.984Z,6.30
2023-02-12T02:33:22.053Z,6.30
2023-02-12T02:38:36.682Z,6.30
2023-02-12T02:43:44.338Z,6.40
2023-02-12T02:49:08.709Z,6.30
2023-02-12T02:54:21.327Z,6.20
2023-02-12T02:59:29.311Z,6.30
2023-02-12T03:04:36.878Z,6.20
2023-02-12T03:09:44.913Z,6.10
2023-02-12T03:15:01.699Z,6.10
2023-02-12T03:20:14.689Z,6.10
2023-02-12T03:25:21.503Z,6.00
2023-02-12T03:30:32.667Z,6.00
2023-02-12T03:35:42.769Z,5.90
2023-02-12T03:41:18.143Z,5.70
2023-02-12T03:46:36.798Z,5.60
2023-02-12T03:51:42.249Z,5.60
2023-02-12T03:56:52.164Z,5.50
2023-02-12T04:01:57.908Z,5.60
2023-02-12T04:07:00.949Z,5.80
2023-02-12T04:12:21.949Z,5.70
2023-02-12T04:18:02.458Z,5.70
2023-02-12T04:23:33.488Z,5.70
2023-02-12T04:28:35.944Z,5.70
2023-02-12T04:33:56.172Z,5.70
2023-02-12T04:39:06.923Z,5.60
2023-02-12T04:44:17.157Z,5.50
2023-02-12T04:49:21.366Z,5.50
2023-02-12T04:54:24.764Z,5.50
2023-02-12T04:59:27.122Z,5.50
2023-02-12T05:04:29.448Z,5.50
2023-02-12T05:09:32.775Z,5.50
2023-02-12T05:14:35.359Z,5.40
2023-02-12T05:19:37.621Z,5.40
2023-02-12T05:24:40.558Z,5.30
2023-02-12T05:29:42.834Z,5.20
2023-02-12T05:34:45.065Z,5.20
2023-02-12T05:39:50.336Z,5.10
2023-02-12T05:44:52.656Z,5.10
2023-02-12T05:49:55.009Z,5.10
2023-02-12T05:54:57.234Z,5.00
2023-02-12T05:59:59.452Z,5.10
2023-02-12T06:05:01.798Z,5.00
2023-02-12T06:10:04.458Z,5.10
2023-02-12T06:15:07.030Z,5.00
2023-02-12T06:20:09.541Z,4.80
2023-02-12T06:25:11.870Z,4.90
2023-02-12T06:30:14.697Z,4.90
2023-02-12T06:35:16.968Z,4.90
2023-02-12T06:40:19.708Z,5.00
2023-02-12T06:45:22.181Z,5.00
2023-02-12T06:50:24.747Z,5.20
2023-02-12T06:55:27.561Z,5.30
2023-02-12T07:00:30.071Z,5.10
2023-02-12T07:05:32.854Z,5.30
2023-02-12T07:10:35.081Z,5.30
2023-02-12T07:15:39.872Z,5.30
2023-02-12T07:20:42.089Z,5.20
2023-02-12T07:25:44.301Z,5.20
2023-02-12T07:30:46.613Z,5.20
2023-02-12T07:35:48.899Z,5.20
2023-02-12T07:40:51.260Z,5.30
2023-02-12T07:45:53.719Z,5.40
2023-02-12T07:50:56.160Z,5.30
2023-02-12T07:56:09.362Z,5.30
2023-02-12T08:01:16.965Z,5.30
2023-02-12T08:06:24.565Z,5.30
2023-02-12T08:11:28.587Z,5.30
2023-02-12T08:16:31.866Z,5.30
2023-02-12T08:21:34.515Z,5.70
2023-02-12T08:26:38.763Z,5.90
2023-02-12T08:31:44.830Z,5.90
2023-02-12T08:36:48.879Z,6.00
2023-02-12T08:41:52.047Z,6.10
2023-02-12T08:46:55.714Z,6.00
2023-02-12T08:52:00.165Z,6.00
2023-02-12T08:57:03.710Z,6.10
2023-02-12T09:02:08.817Z,6.30
2023-02-12T09:07:11.142Z,6.30
2023-02-12T09:12:13.358Z,6.40
2023-02-12T09:17:15.614Z,6.40
2023-02-12T09:22:17.859Z,6.40
2023-02-12T09:27:20.102Z,6.50
2023-02-12T09:32:22.398Z,6.40
2023-02-12T09:37:24.649Z,6.40
2023-02-12T09:42:57.114Z,6.40
2023-02-12T09:48:27.048Z,6.30
2023-02-12T09:53:31.237Z,6.30
2023-02-12T09:58:44.505Z,6.20
2023-02-12T10:03:49.098Z,6.10
2023-02-12T10:09:03.217Z,6.10
2023-02-12T10:14:30.497Z,6.10
2023-02-12T10:19:45.313Z,6.20
2023-02-12T10:24:53.134Z,6.30
2023-02-12T10:29:59.107Z,6.40
2023-02-12T10:35:02.125Z,6.50
2023-02-12T10:40:33.937Z,6.50
2023-02-12T10:45:40.050Z,6.50
2023-02-12T10:50:49.164Z,6.70
2023-02-12T10:56:12.099Z,6.90
2023-02-12T11:01:19.927Z,6.90
2023-02-12T11:06:27.864Z,7.10
2023-02-12T11:11:37.822Z,7.10
2023-02-12T11:16:51.139Z,6.90
2023-02-12T11:22:07.571Z,6.90
2023-02-12T11:27:25.171Z,6.90
2023-02-12T11:32:27.416Z,6.80
2023-02-12T11:37:32.439Z,6.80
2023-02-12T11:42:38.669Z,6.90
2023-02-12T11:47:41.154Z,6.90
2023-02-12T11:52:43.973Z,6.70
2023-02-12T11:57:50.014Z,6.70
2023-02-12T12:03:15.350Z,6.50
2023-02-12T12:08:29.045Z,6.50
2023-02-12T12:13:38.886Z,6.30
2023-02-12T12:19:13.079Z,6.40
2023-02-12T12:24:21.936Z,6.40
2023-02-12T12:29:42.081Z,6.40
2023-02-12T12:34:44.464Z,6.30
2023-02-12T12:40:03.400Z,6.70
2023-02-12T12:45:28.913Z,6.90
2023-02-12T12:50:51.932Z,7.00
2023-02-12T12:56:13.720Z,7.20
2023-02-12T13:01:47.184Z,7.30
2023-02-12T13:07:04.225Z,7.50
2023-02-12T13:12:24.644Z,7.30
2023-02-12T13:17:37.161Z,7.40
2023-02-12T13:22:50.306Z,7.50
2023-02-12T13:27:54.180Z,7.40
2023-02-12T13:33:10.931Z,7.20
2023-02-12T13:38:28.035Z,7.30
2023-02-12T13:43:54.822Z,7.20
2023-02-12T13:49:01.438Z,7.30
2023-02-12T13:54:28.177Z,7.20
2023-02-12T13:59:34.166Z,7.20
2023-02-12T14:04:46.515Z,7.10
2023-02-12T14:09:51.582Z,7.00
2023-02-12T14:15:30.900Z,7.10
2023-02-12T14:20:38.833Z,7.10
2023-02-12T14:25:57.883Z,7.10
2023-02-12T14:31:18.862Z,7.00
2023-02-12T14:36:33.489Z,7.00
2023-02-12T14:41:41.850Z,7.10
2023-02-12T14:46:44.249Z,6.90
2023-02-12T14:52:07.548Z,6.90
2023-02-12T14:57:34.777Z,6.90
2023-02-12T15:02:39.549Z,6.90
2023-02-12T15:07:48.830Z,6.90
2023-02-12T15:13:02.279Z,6.80
2023-02-12T15:18:16.383Z,6.80
2023-02-12T15:23:30.971Z,6.70
2023-02-12T15:28:36.421Z,6.70
2023-02-12T15:33:47.612Z,6.70
2023-02-12T15:38:53.084Z,6.70
2023-02-12T15:43:55.839Z,6.60
2023-02-12T15:48:58.419Z,6.70
2023-02-12T15:54:01.787Z,6.60
2023-02-12T15:59:04.243Z,6.60
2023-02-12T16:04:08.315Z,6.60
2023-02-12T16:09:32.386Z,6.50
2023-02-12T16:14:44.643Z,6.50
2023-02-12T16:19:54.089Z,6.60
2023-02-12T16:24:56.671Z,6.60
2023-02-12T16:30:02.760Z,6.50
2023-02-12T16:35:10.759Z,6.50
2023-02-12T16:40:12.997Z,6.60
2023-02-12T16:45:34.163Z,6.50
2023-02-12T16:50:43.372Z,6.60
2023-02-12T16:55:45.734Z,6.60
2023-02-12T17:00:49.303Z,6.60
2023-02-12T17:05:52.467Z,6.70
2023-02-12T17:10:54.808Z,6.60
2023-02-12T17:15:59.794Z,6.60
2023-02-12T17:21:16.027Z,6.60
2023-02-12T17:26:18.311Z,6.50
2023-02-12T17:31:20.902Z,6.50
2023-02-12T17:36:24.538Z,6.50
2023-02-12T17:41:26.953Z,6.50
2023-02-12T17:46:30.008Z,6.50
2023-02-12T17:51:32.347Z,6.50
2023-02-12T17:56:34.660Z,6.50
2023-02-12T18:01:37.038Z,6.50
2023-02-12T18:06:39.353Z,6.50
2023-02-12T18:11:42.410Z,6.50
2023-02-12T18:16:45.057Z,6.40
2023-02-12T18:21:47.726Z,6.40
2023-02-12T18:26:50.223Z,6.30
2023-02-12T18:31:54.969Z,6.30
2023-02-12T18:36:57.800Z,6.20
2023-02-12T18:42:00.180Z,6.20
2023-02-12T18:47:02.436Z,6.10
2023-02-12T18:52:04.889Z,6.20
2023-02-12T18:57:07.131Z,6.30
2023-02-12T19:02:13.434Z,6.30
2023-02-12T19:07:15.746Z,6.30
2023-02-12T19:12:17.960Z,6.20
2023-02-12T19:17:20.383Z,6.10
2023-02-12T19:22:22.687Z,6.20
2023-02-12T19:27:25.010Z,6.20
2023-02-12T19:32:27.384Z,6.20
2023-02-12T19:37:29.754Z,6.20
2023-02-12T19:42:32.062Z,6.20
2023-02-12T19:47:34.284Z,6.20
2023-02-12T19:52:36.798Z,6.20
2023-02-12T19:57:39.175Z,6.20
2023-02-12T20:02:43.876Z,6.30
2023-02-12T20:07:46.251Z,6.20
2023-02-12T20:12:48.695Z,6.20
2023-02-12T20:17:50.922Z,6.20
2023-02-12T20:22:53.132Z,6.20
2023-02-12T20:27:55.370Z,6.20
2023-02-12T20:32:57.614Z,6.30
2023-02-12T20:38:00.011Z,6.30
2023-02-12T20:43:02.241Z,6.30
2023-02-12T20:48:04.485Z,6.30
2023-02-12T20:53:06.713Z,6.30
2023-02-12T20:58:09.006Z,6.30
2023-02-12T21:03:11.234Z,6.20
2023-02-12T21:08:13.472Z,6.20
2023-02-12T21:13:15.688Z,6.30
2023-02-12T21:18:20.651Z,6.30
2023-02-12T21:23:22.980Z,6.20
2023-02-12T21:28:25.391Z,6.20
2023-02-12T21:33:27.733Z,6.30
2023-02-12T21:38:32.628Z,6.20
2023-02-12T21:43:36.149Z,6.20
2023-02-12T21:48:41.501Z,6.30
2023-02-12T21:53:43.777Z,6.30
2023-02-12T21:58:46.720Z,6.30
2023-02-12T22:03:49.695Z,6.30
2023-02-12T22:08:53.372Z,6.40
2023-02-12T22:13:55.603Z,6.40
2023-02-12T22:19:01.682Z,6.40
2023-02-12T22:24:07.012Z,6.40
2023-02-12T22:29:11.262Z,6.30
2023-02-12T22:34:17.363Z,6.40
2023-02-12T22:39:19.599Z,6.40
2023-02-12T22:44:22.993Z,6.50
2023-02-12T22:49:25.390Z,6.40
2023-02-12T22:54:27.707Z,6.40
2023-02-12T22:59:29.929Z,6.40
2023-02-12T23:04:32.326Z,6.40
2023-02-12T23:09:34.682Z,6.40
2023-02-12T23:14:36.962Z,6.40
2023-02-12T23:19:39.354Z,6.30
2023-02-12T23:24:41.628Z,6.20
2023-02-12T23:29:43.888Z,6.30
2023-02-12T23:34:46.117Z,6.30
2023-02-12T23:39:48.355Z,6.40
2023-02-12T23:44:50.646Z,6.50
2023-02-12T23:49:52.910Z,6.50
2023-02-12T23:54:56.143Z,6.50
2023-02-12T23:59:58.367Z,6.40
